Time;durP1;ratioP1;P1;durP2;ratioP2;P2;SDS_P1;SDS_P2;PMS_P1;PMS_P2;Temp;Humidity;BMP_temperature;BMP_pressure;BME280_temperature;BME280_humidity;BME280_pressure;Samples;Min_cycle;Max_cycle;Signal;HPM_P1;HPM_P2
2022/02/23 00:02:07;;;;;;;;;;;7.10;72.30;;;5.49;75.28;96426.31;4951737;28;20388;-69
2022/02/23 00:04:33;;;;;;;;;;;7.00;72.70;;;5.48;73.86;96435.09;4952275;28;19928;-68
2022/02/23 00:06:59;;;;;;;;;;;7.00;72.70;;;5.48;73.86;96424.66;4936176;28;19969;-68
2022/02/23 00:09:25;;;;;;;;;;;7.00;72.60;;;5.48;75.06;96427.28;4935938;28;19936;-67
2022/02/23 00:11:50;;;;;;;;;;;7.10;72.80;;;5.48;74.54;96416.84;4969523;28;19988;-68
2022/02/23 00:14:16;;;;;;;;;;;7.00;72.70;;;5.48;74.22;96416.84;4968249;28;20378;-68
2022/02/23 00:16:41;;;;;;;;;;;7.00;72.70;;;5.48;73.34;96426.47;4952316;28;19918;-68
2022/02/23 00:19:08;;;;;;;;;;;7.00;72.90;;;5.49;74.55;96412.44;4954004;28;19922;-69
2022/02/23 00:21:33;;;;;;;;;;;7.00;72.90;;;5.48;74.17;96427.28;4952436;28;19918;-68
2022/02/23 00:23:59;;;;;;;;;;;7.00;72.80;;;5.50;74.69;96409.69;4966738;28;19922;-68
2022/02/23 00:26:25;;;;;;;;;;;7.00;73.20;;;5.50;75.13;96412.28;4969040;28;19929;-68
2022/02/23 00:28:50;;;;;;;;;;;7.10;72.90;;;5.51;74.31;96416.53;4951929;28;20416;-68
2022/02/23 00:31:16;;;;;;;;;;;7.00;72.90;;;5.51;75.64;96406.09;4969625;28;19985;-68
2022/02/23 00:33:42;;;;;;;;;;;7.10;72.90;;;5.53;73.87;96404.16;4955917;28;20443;-68
2022/02/23 00:36:08;;;;;;;;;;;7.10;73.00;;;5.54;75.20;96399.75;4955440;28;19944;-69
2022/02/23 00:38:33;;;;;;;;;;;7.10;72.90;;;5.55;74.90;96406.63;4918050;29;19969;-68
2022/02/23 00:40:59;;;;;;;;;;;7.10;72.90;;;5.56;75.19;96397.81;4971430;28;19922;-68
2022/02/23 00:43:26;;;;;;;;;;;7.10;73.10;;;5.57;76.30;96401.25;4972974;28;19922;-68
2022/02/23 00:45:52;;;;;;;;;;;7.10;73.10;;;5.56;75.69;96399.63;4940076;28;19937;-67
2022/02/23 00:48:18;;;;;;;;;;;7.10;73.20;;;5.56;74.86;96397.81;4954983;28;19922;-69
2022/02/23 00:50:46;;;;;;;;;;;7.10;73.20;;;5.56;75.88;96403.03;4955838;28;20314;-69
2022/02/23 00:53:11;;;;;;;;;;;7.10;73.40;;;5.57;75.22;96399.47;4955486;28;20421;-69
2022/02/23 00:55:37;;;;;;;;;;;7.10;73.40;;;5.57;75.79;96404.69;4972667;28;19937;-67
2022/02/23 00:58:03;;;;;;;;;;;7.10;73.30;;;5.59;75.70;96407.13;4972092;28;19980;-67
2022/02/23 01:00:28;;;;;;;;;;;7.10;73.20;;;5.60;76.25;96412.19;4972786;28;19922;-68
2022/02/23 01:02:54;;;;;;;;;;;7.20;73.30;;;5.62;75.01;96405.03;5009480;23;20294;-67
2022/02/23 01:05:20;;;;;;;;;;;7.20;73.20;;;5.65;75.76;96404.75;4963294;28;19936;-67
2022/02/23 01:07:45;;;;;;;;;;;7.20;73.20;;;5.66;75.31;96408.16;5007941;28;19925;-67
2022/02/23 01:10:11;;;;;;;;;;;7.20;73.20;;;5.67;75.66;96415.88;4993903;28;19921;-66
2022/02/23 01:12:37;;;;;;;;;;;7.20;73.10;;;5.68;75.39;96417.50;4983391;28;19926;-67
2022/02/23 01:15:03;;;;;;;;;;;7.20;73.20;;;5.71;75.99;96408.56;4990337;28;20381;-67
2022/02/23 01:17:29;;;;;;;;;;;7.20;73.10;;;5.72;74.99;96391.94;4991009;28;19926;-67
2022/02/23 01:19:55;;;;;;;;;;;7.30;73.20;;;5.73;74.56;96420.47;5006642;28;19921;-67
2022/02/23 01:22:20;;;;;;;;;;;7.30;73.00;;;5.75;75.01;96415.09;5007030;28;19922;-67
2022/02/23 01:24:46;;;;;;;;;;;7.30;73.00;;;5.76;74.30;96404.50;5006969;28;19918;-67
2022/02/23 01:27:12;;;;;;;;;;;7.40;72.80;;;5.78;75.08;96404.38;4990944;28;20229;-67
2022/02/23 01:29:37;;;;;;;;;;;7.30;73.00;;;5.79;74.57;96408.63;5006667;28;20317;-67
2022/02/23 01:32:03;;;;;;;;;;;7.40;72.90;;;5.79;75.26;96406.00;4990819;28;19922;-67
2022/02/23 01:34:29;;;;;;;;;;;7.40;72.90;;;5.80;74.93;96399.81;4991218;28;19976;-67
2022/02/23 01:36:55;;;;;;;;;;;7.40;73.00;;;5.79;76.20;96413.84;4985907;28;20302;-67
2022/02/23 01:39:20;;;;;;;;;;;7.30;73.40;;;5.80;75.61;96420.69;4990246;28;19937;-67
2022/02/23 01:41:46;;;;;;;;;;;7.40;73.60;;;5.82;75.63;96416.94;4990250;28;19941;-67
2022/02/23 01:44:12;;;;;;;;;;;7.40;73.80;;;5.82;76.15;96424.78;5003334;28;19988;-67
2022/02/23 01:46:37;;;;;;;;;;;7.40;74.00;;;5.83;75.41;96426.41;4991155;28;19929;-69
2022/02/23 01:49:03;;;;;;;;;;;7.40;73.70;;;5.83;75.57;96421.19;4990495;28;19944;-67
2022/02/23 01:51:30;;;;;;;;;;;7.30;73.80;;;5.84;76.25;96411.56;5003181;28;19922;-68
2022/02/23 01:53:55;;;;;;;;;;;7.40;73.80;;;5.85;75.52;96418.44;5005862;28;20333;-67
2022/02/23 01:56:21;;;;;;;;;;;7.30;74.00;;;5.83;76.80;96418.59;5003511;28;19926;-67
2022/02/23 01:58:47;;;;;;;;;;;7.40;73.90;;;5.85;76.28;96426.28;4968898;28;19933;-67
2022/02/23 02:01:12;;;;;;;;;;;7.40;73.90;;;5.87;76.76;96420.91;4985631;28;19922;-67
2022/02/23 02:03:38;;;;;;;;;;;7.40;73.90;;;5.86;76.21;96420.06;4990024;28;19926;-67
2022/02/23 02:06:04;;;;;;;;;;;7.40;73.80;;;5.88;76.01;96423.34;5005014;28;20386;-67
2022/02/23 02:08:29;;;;;;;;;;;7.50;74.00;;;5.87;76.98;96426.94;4989799;28;19930;-68
2022/02/23 02:10:55;;;;;;;;;;;7.50;74.10;;;5.90;76.13;96421.47;4991356;28;19918;-69
2022/02/23 02:13:21;;;;;;;;;;;7.50;74.00;;;5.90;76.63;96421.47;4991419;28;19922;-69
2022/02/23 02:15:47;;;;;;;;;;;7.60;73.80;;;5.92;76.24;96435.19;5002203;28;20024;-67
2022/02/23 02:18:12;;;;;;;;;;;7.60;73.70;;;5.93;75.74;96438.63;4990686;28;19922;-68
2022/02/23 02:20:38;;;;;;;;;;;7.50;73.90;;;5.92;76.17;96444.81;4999309;28;20274;-69
2022/02/23 02:23:04;;;;;;;;;;;7.50;74.20;;;5.92;76.60;96429.97;4984077;28;20394;-68
2022/02/23 02:25:29;;;;;;;;;;;7.50;74.00;;;5.93;75.78;96430.78;5005981;28;19975;-68
2022/02/23 02:27:55;;;;;;;;;;;7.50;74.00;;;5.92;75.77;96429.97;5005187;28;19928;-67
2022/02/23 02:30:21;;;;;;;;;;;7.50;74.40;;;5.92;77.15;96424.75;4992135;28;19928;-68
2022/02/23 02:32:46;;;;;;;;;;;7.50;74.60;;;5.94;77.76;96432.41;4970892;28;20299;-68
2022/02/23 02:35:14;;;;;;;;;;;7.50;75.10;;;5.92;77.80;96427.34;4970122;28;19926;-68
2022/02/23 02:37:40;;;;;;;;;;;7.40;75.30;;;5.91;76.88;96428.31;4990374;28;19926;-69
2022/02/23 02:40:06;;;;;;;;;;;7.50;75.40;;;5.93;78.41;96436.81;4988530;28;20450;-68
2022/02/23 02:42:31;;;;;;;;;;;7.50;75.40;;;5.92;77.93;96445.63;5003272;28;19928;-70
2022/02/23 02:44:57;;;;;;;;;;;7.50;75.80;;;5.92;76.88;96445.63;4989627;28;19918;-69
2022/02/23 02:47:24;;;;;;;;;;;7.50;75.80;;;5.92;78.98;96453.47;4985389;28;19948;-69
2022/02/23 02:49:50;;;;;;;;;;;7.50;75.50;;;5.92;78.47;96448.25;4972253;28;20353;-69
2022/02/23 02:52:15;;;;;;;;;;;7.50;75.50;;;5.94;77.66;96458.53;4989250;28;19921;-69
2022/02/23 02:54:41;;;;;;;;;;;7.60;75.00;;;5.95;77.64;96461.00;4988181;28;20385;-69
2022/02/23 02:57:07;;;;;;;;;;;7.50;74.90;;;5.96;78.53;96457.41;5004502;28;19918;-70
2022/02/23 02:59:32;;;;;;;;;;;7.60;75.00;;;5.97;77.45;96453.81;4988340;28;19922;-69
2022/02/23 03:01:58;;;;;;;;;;;7.60;75.00;;;5.99;77.89;96449.25;5003387;28;19918;-68
2022/02/23 03:04:24;;;;;;;;;;;7.60;75.10;;;6.00;78.81;96463.97;4994752;28;19922;-68
2022/02/23 03:06:49;;;;;;;;;;;7.60;75.30;;;6.00;78.34;96461.34;4971667;28;19987;-69
2022/02/23 03:09:15;;;;;;;;;;;7.60;75.20;;;6.01;78.17;96476.03;5004780;28;20324;-69
2022/02/23 03:11:41;;;;;;;;;;;7.60;75.50;;;6.02;78.02;96466.41;4989177;28;19921;-69
2022/02/23 03:14:06;;;;;;;;;;;7.60;75.40;;;6.01;79.36;96468.22;4998159;28;19922;-67
2022/02/23 03:16:32;;;;;;;;;;;7.60;75.90;;;6.01;79.33;96470.81;4973752;28;20360;-68
2022/02/23 03:18:58;;;;;;;;;;;7.50;76.20;;;6.00;79.05;96479.63;4971745;28;19922;-70
2022/02/23 03:21:23;;;;;;;;;;;7.50;76.90;;;6.01;79.67;96491.72;4971875;28;19983;-69
2022/02/23 03:23:49;;;;;;;;;;;7.50;76.50;;;5.99;79.10;96491.03;4987528;28;20300;-69
2022/02/23 03:26:15;;;;;;;;;;;7.60;76.50;;;6.00;80.03;96510.97;4987321;28;19932;-68
2022/02/23 03:28:40;;;;;;;;;;;7.60;76.90;;;5.99;80.83;96530.22;4988012;28;19968;-68
2022/02/23 03:31:07;;;;;;;;;;;7.50;78.10;;;5.97;82.09;96526.94;5003751;28;20030;-68
2022/02/23 03:33:33;;;;;;;;;;;7.50;79.20;;;5.91;83.50;96543.22;4987513;28;20461;-68
2022/02/23 03:35:59;;;;;;;;;;;7.30;80.80;;;5.86;84.53;96553.22;5002393;28;19926;-68
2022/02/23 03:38:24;;;;;;;;;;;7.20;81.20;;;5.82;83.91;96586.63;4988482;28;19968;-68
2022/02/23 03:40:50;;;;;;;;;;;7.20;81.90;;;5.76;83.26;96618.56;4970798;28;19925;-70
2022/02/23 03:43:18;;;;;;;;;;;7.10;83.10;;;5.67;84.05;96626.44;4990257;28;19948;-70
2022/02/23 03:45:45;;;;;;;;;;;6.90;81.90;;;5.58;81.12;96629.91;4984055;28;20024;-71
2022/02/23 03:48:10;;;;;;;;;;;6.90;79.40;;;5.52;82.38;96632.13;4975360;28;19930;-71
2022/02/23 03:50:36;;;;;;;;;;;6.90;79.60;;;5.45;82.31;96651.94;4988976;28;20008;-71
2022/02/23 03:53:02;;;;;;;;;;;6.90;78.20;;;5.36;80.98;96647.56;4970194;28;19976;-68
2022/02/23 03:55:27;;;;;;;;;;;6.70;78.70;;;5.27;81.00;96658.06;4987239;28;20038;-68
2022/02/23 03:57:53;;;;;;;;;;;6.60;78.60;;;5.22;80.62;96653.28;4954625;28;19922;-68
2022/02/23 04:00:19;;;;;;;;;;;6.70;78.20;;;5.18;79.42;96659.72;4970829;28;19918;-67
2022/02/23 04:02:44;;;;;;;;;;;6.70;76.70;;;5.11;79.28;96669.06;4986427;28;19922;-68
2022/02/23 04:05:10;;;;;;;;;;;6.60;76.60;;;5.07;79.76;96667.72;5002928;28;20459;-67
2022/02/23 04:07:36;;;;;;;;;;;6.50;77.00;;;5.03;79.79;96667.19;4987104;28;19921;-68
2022/02/23 04:10:03;;;;;;;;;;;6.60;76.90;;;5.03;79.46;96682.00;4986908;28;20007;-67
2022/02/23 04:12:29;;;;;;;;;;;6.60;77.10;;;4.99;80.06;96675.44;4986968;28;19961;-67
2022/02/23 04:14:54;;;;;;;;;;;6.60;77.60;;;4.95;79.43;96679.25;5002773;28;19932;-67
2022/02/23 04:17:20;;;;;;;;;;;6.50;76.80;;;4.89;79.75;96689.28;4995076;28;19929;-67
2022/02/23 04:19:46;;;;;;;;;;;6.40;76.80;;;4.83;79.64;96697.66;4988793;28;19917;-68
2022/02/23 04:22:11;;;;;;;;;;;6.30;76.90;;;4.77;79.71;96698.22;4986250;28;19922;-67
2022/02/23 04:24:37;;;;;;;;;;;6.20;77.20;;;4.74;78.86;96703.69;5003124;28;19922;-66
2022/02/23 04:27:03;;;;;;;;;;;6.20;77.60;;;4.67;79.32;96702.59;4987008;28;20369;-67
2022/02/23 04:29:29;;;;;;;;;;;6.10;77.20;;;4.64;79.74;96702.88;4986833;28;19926;-67
2022/02/23 04:31:55;;;;;;;;;;;6.10;77.10;;;4.58;79.75;96708.66;4987108;28;19917;-67
2022/02/23 04:34:21;;;;;;;;;;;6.10;77.10;;;4.58;79.17;96725.09;4985774;28;20613;-67
2022/02/23 04:36:46;;;;;;;;;;;6.10;77.10;;;4.55;78.80;96734.97;4986725;28;20011;-67
2022/02/23 04:39:12;;;;;;;;;;;6.10;76.80;;;4.53;79.13;96742.94;4986530;28;20224;-67
2022/02/23 04:41:38;;;;;;;;;;;6.10;76.70;;;4.51;79.46;96738.78;4986640;28;19928;-67
2022/02/23 04:44:04;;;;;;;;;;;6.00;76.50;;;4.52;79.50;96745.63;4987528;28;20012;-67
2022/02/23 04:46:30;;;;;;;;;;;6.10;76.30;;;4.51;78.82;96749.19;5002674;28;19929;-67
2022/02/23 04:48:55;;;;;;;;;;;6.10;75.80;;;4.49;79.14;96736.31;4986398;28;19922;-72
2022/02/23 04:51:23;;;;;;;;;;;6.10;76.40;;;4.50;78.49;96737.97;4966464;28;19922;-68
2022/02/23 04:53:49;;;;;;;;;;;6.10;76.00;;;4.48;79.47;96739.06;4979693;28;20292;-69
2022/02/23 04:56:15;;;;;;;;;;;6.10;76.10;;;4.46;78.63;96747.00;4987246;28;19934;-67
2022/02/23 04:58:40;;;;;;;;;;;6.10;76.30;;;4.44;79.22;96750.72;4999381;28;19918;-67
2022/02/23 05:01:06;;;;;;;;;;;6.00;76.40;;;4.43;79.40;96762.09;4987140;28;20444;-67
2022/02/23 05:03:32;;;;;;;;;;;6.10;76.80;;;4.41;79.42;96775.25;4977849;28;19928;-67
2022/02/23 05:05:59;;;;;;;;;;;6.00;76.80;;;4.42;79.80;96770.88;4970091;28;20062;-67
2022/02/23 05:08:27;;;;;;;;;;;6.10;76.60;;;4.41;78.87;96779.63;5003203;28;19925;-67
2022/02/23 05:10:57;;;;;;;;;;;6.10;76.30;;;4.40;79.47;96778.81;4987046;28;19993;-67
2022/02/23 05:13:25;;;;;;;;;;;6.10;76.50;;;4.41;79.36;96784.84;4987527;28;19918;-67
2022/02/23 05:15:53;;;;;;;;;;;6.10;76.40;;;4.41;79.61;96784.84;4970631;28;20420;-68
2022/02/23 05:18:18;;;;;;;;;;;6.10;76.60;;;4.39;78.75;96790.19;4988739;28;20004;-67
2022/02/23 05:20:44;;;;;;;;;;;6.10;76.40;;;4.37;80.04;96791.28;4992147;28;20274;-67
2022/02/23 05:23:10;;;;;;;;;;;6.00;76.50;;;4.35;79.26;96806.22;4991575;28;19990;-67
2022/02/23 05:25:35;;;;;;;;;;;6.00;76.10;;;4.33;78.78;96816.78;5006751;28;19918;-67
2022/02/23 05:28:01;;;;;;;;;;;6.10;76.30;;;4.33;79.78;96821.16;4989834;28;19928;-68
2022/02/23 05:30:27;;;;;;;;;;;6.00;76.20;;;4.32;79.92;96827.34;4990729;28;19966;-68
2022/02/23 05:32:53;;;;;;;;;;;6.10;76.40;;;4.29;78.93;96833.59;4991836;28;20377;-68
2022/02/23 05:35:18;;;;;;;;;;;6.00;76.40;;;4.27;80.17;96836.34;4990094;28;19926;-67
2022/02/23 05:37:44;;;;;;;;;;;5.90;76.40;;;4.26;79.68;96845.09;4991443;28;20304;-68
2022/02/23 05:40:10;;;;;;;;;;;5.90;76.70;;;4.24;79.38;96849.63;5006281;28;19930;-68
2022/02/23 05:42:36;;;;;;;;;;;5.90;76.80;;;4.22;79.38;96864.56;4990385;28;19970;-68
2022/02/23 05:45:01;;;;;;;;;;;5.90;76.80;;;4.21;79.47;96868.13;4989694;28;19925;-68
2022/02/23 05:47:27;;;;;;;;;;;5.90;76.60;;;4.17;79.78;96871.94;4991386;28;19918;-68
2022/02/23 05:49:53;;;;;;;;;;;5.70;76.80;;;4.12;80.52;96868.91;5006006;28;20028;-68
2022/02/23 05:52:21;;;;;;;;;;;5.80;78.20;;;4.13;80.03;96886.19;4956969;28;19929;-68
2022/02/23 05:54:50;;;;;;;;;;;5.80;77.90;;;4.12;80.38;96883.72;5005546;28;19957;-68
2022/02/23 05:57:16;;;;;;;;;;;5.80;77.50;;;4.10;79.86;96891.66;4994082;28;19918;-68
2022/02/23 05:59:41;;;;;;;;;;;5.80;77.20;;;4.07;80.33;96894.50;5006416;28;19942;-68
2022/02/23 06:02:07;;;;;;;;;;;5.70;77.20;;;4.05;80.09;96898.19;5005540;28;19975;-68
2022/02/23 06:04:36;;;;;;;;;;;5.70;77.80;;;4.05;80.57;96909.41;5005195;28;19972;-68
2022/02/23 06:07:03;;;;;;;;;;;5.70;77.30;;;4.02;80.12;96917.47;4989338;28;19921;-68
2022/02/23 06:09:29;;;;;;;;;;;5.60;77.30;;;3.98;79.85;96913.50;4989758;28;20302;-68
2022/02/23 06:11:54;;;;;;;;;;;5.60;77.20;;;3.97;80.44;96919.66;4989656;28;19922;-68
2022/02/23 06:14:20;;;;;;;;;;;5.60;77.30;;;3.96;80.05;96925.81;4989032;28;19918;-68
2022/02/23 06:16:46;;;;;;;;;;;5.70;77.50;;;3.91;79.82;96927.97;4991210;28;19945;-68
2022/02/23 06:19:11;;;;;;;;;;;5.60;77.40;;;3.88;79.72;96930.84;4973275;28;19968;-68
2022/02/23 06:21:37;;;;;;;;;;;5.50;77.60;;;3.86;79.80;96924.94;5004096;28;19929;-68
2022/02/23 06:24:03;;;;;;;;;;;5.50;77.50;;;3.80;80.23;96923.66;4988471;28;19922;-68
2022/02/23 06:26:29;;;;;;;;;;;5.40;77.50;;;3.82;80.23;96926.13;4989186;28;19918;-68
2022/02/23 06:28:56;;;;;;;;;;;5.60;77.40;;;3.77;80.56;96925.69;5005203;28;20021;-68
2022/02/23 06:31:22;;;;;;;;;;;5.40;77.00;;;3.71;80.01;96941.81;5005233;28;20269;-68
2022/02/23 06:33:47;;;;;;;;;;;5.30;77.50;;;3.66;79.76;96945.63;5005645;28;19925;-67
2022/02/23 06:36:13;;;;;;;;;;;5.30;77.30;;;3.62;80.21;96946.81;5004588;28;19933;-68
2022/02/23 06:38:40;;;;;;;;;;;5.30;77.40;;;3.57;79.94;96948.94;5005612;28;20319;-67
2022/02/23 06:41:12;;;;;;;;;;;5.20;77.50;;;3.54;79.70;96957.00;4989119;28;19922;-68
2022/02/23 06:43:38;;;;;;;;;;;5.20;77.50;;;3.51;80.68;96967.66;5005466;28;19952;-68
2022/02/23 06:46:05;;;;;;;;;;;5.20;77.90;;;3.52;80.44;96965.88;4971682;28;22343;-68
2022/02/23 06:48:32;;;;;;;;;;;5.30;78.20;;;3.51;81.08;96967.66;4972823;28;19917;-68
2022/02/23 06:50:57;;;;;;;;;;;5.20;78.00;;;3.51;81.62;96966.84;4969577;28;19929;-68
2022/02/23 06:53:23;;;;;;;;;;;5.20;78.50;;;3.51;80.78;96967.66;4985900;28;19918;-68
2022/02/23 06:55:49;;;;;;;;;;;5.20;77.80;;;3.49;80.24;96969.56;4969261;28;19968;-67
2022/02/23 06:58:14;;;;;;;;;;;5.30;77.70;;;3.51;79.97;96975.47;4985296;28;19944;-68
2022/02/23 07:00:40;;;;;;;;;;;5.20;77.60;;;3.51;80.61;96983.28;4985947;28;19929;-68
2022/02/23 07:03:07;;;;;;;;;;;5.30;77.90;;;3.52;80.26;96990.13;4970783;28;20013;-68
2022/02/23 07:05:32;;;;;;;;;;;5.40;77.60;;;3.56;80.66;96991.53;4953435;28;19925;-68
2022/02/23 07:08:02;;;;;;;;;;;5.50;76.90;;;3.61;80.34;96999.78;4984951;28;19980;-67
2022/02/23 07:10:28;;;;;;;;;;;5.60;76.70;;;3.68;80.36;97000.13;4969418;28;19922;-67
2022/02/23 07:12:54;;;;;;;;;;;5.80;76.30;;;3.77;79.90;97001.16;4969215;28;20370;-67
2022/02/23 07:15:21;;;;;;;;;;;6.00;75.50;;;3.88;80.31;97016.72;4968974;28;19926;-68
2022/02/23 07:17:47;;;;;;;;;;;6.20;75.00;;;3.98;79.47;97012.41;4969641;28;19922;-67
2022/02/23 07:20:12;;;;;;;;;;;6.20;74.30;;;4.11;79.49;97013.06;4985091;28;19925;-68
2022/02/23 07:22:38;;;;;;;;;;;6.50;73.40;;;4.23;79.40;97021.63;4987930;28;19928;-68
2022/02/23 07:25:05;;;;;;;;;;;6.60;73.30;;;4.38;78.31;97019.53;4989345;28;20305;-68
2022/02/23 07:27:31;;;;;;;;;;;6.90;72.20;;;4.52;77.69;97022.63;4972363;28;20068;-69
2022/02/23 07:29:56;;;;;;;;;;;7.10;71.10;;;4.66;77.25;97029.28;4987961;28;19929;-69
2022/02/23 07:32:26;;;;;;;;;;;7.30;70.70;;;4.82;77.07;97042.69;5004827;28;19934;-68
2022/02/23 07:34:55;;;;;;;;;;;7.60;70.30;;;5.01;76.78;97043.72;4989382;28;20282;-68
2022/02/23 07:37:21;;;;;;;;;;;7.90;69.30;;;5.21;76.01;97035.03;4988471;28;19925;-66
2022/02/23 07:39:49;;;;;;;;;;;8.20;68.00;;;5.41;75.89;97039.31;4972401;28;19924;-67
2022/02/23 07:42:15;;;;;;;;;;;8.50;67.00;;;5.59;74.63;97036.06;4987216;28;20029;-68
2022/02/23 07:44:41;;;;;;;;;;;8.70;65.20;;;5.76;74.21;97045.84;4988125;28;19914;-68
2022/02/23 07:47:06;;;;;;;;;;;9.00;64.70;;;5.92;74.18;97046.19;4988377;28;19922;-68
2022/02/23 07:49:32;;;;;;;;;;;9.10;63.60;;;6.12;73.76;97060.06;4989565;28;20293;-68
2022/02/23 07:51:59;;;;;;;;;;;9.40;63.20;;;6.33;73.34;97059.88;4989015;28;19922;-68
2022/02/23 07:54:26;;;;;;;;;;;9.80;62.00;;;6.48;72.66;97053.28;4988026;28;20365;-67
2022/02/23 07:56:51;;;;;;;;;;;9.90;61.00;;;6.65;72.61;97049.97;4971722;28;20457;-68
2022/02/23 07:59:17;;;;;;;;;;;10.20;60.70;;;6.86;72.33;97054.19;4989651;28;19924;-68
2022/02/23 08:01:43;;;;;;;;;;;10.60;60.00;;;7.05;71.62;97061.97;4989270;28;20305;-68
2022/02/23 08:04:08;;;;;;;;;;;10.90;58.50;;;7.25;70.62;97060.91;4987218;28;19929;-68
2022/02/23 08:06:34;;;;;;;;;;;11.10;57.10;;;7.42;69.73;97071.56;4989240;28;19918;-68
2022/02/23 08:09:00;;;;;;;;;;;11.40;56.00;;;7.59;69.83;97073.41;4971543;28;19957;-68
2022/02/23 08:11:26;;;;;;;;;;;11.70;55.30;;;7.79;69.39;97068.88;5004329;28;20366;-68
2022/02/23 08:13:58;;;;;;;;;;;12.10;54.30;;;7.99;69.15;97071.22;4989246;28;20031;-68
2022/02/23 08:19:31;;;;;;;;;;;12.60;51.80;;;8.43;67.02;97071.34;4970363;28;19933;-68
2022/02/23 08:21:58;;;;;;;;;;;12.80;50.90;;;8.62;67.08;97075.59;4983970;28;19918;-68
2022/02/23 08:24:27;;;;;;;;;;;13.20;50.20;;;8.80;66.02;97084.22;4989447;28;19925;-68
2022/02/23 08:26:56;;;;;;;;;;;13.60;49.30;;;8.96;66.68;97082.69;4971693;28;19918;-68
2022/02/23 08:29:22;;;;;;;;;;;13.80;48.90;;;9.18;66.66;97077.72;4987891;28;20013;-68
2022/02/23 08:31:48;;;;;;;;;;;14.20;48.10;;;9.37;65.09;97091.63;4979170;28;19922;-68
2022/02/23 08:34:14;;;;;;;;;;;14.20;47.40;;;9.57;65.42;97093.03;4997741;28;19929;-68
2022/02/23 08:36:39;;;;;;;;;;;14.70;46.80;;;9.74;65.14;97093.91;4952289;28;20382;-67
2022/02/23 08:39:07;;;;;;;;;;;14.90;46.30;;;9.97;64.62;97100.22;4969533;28;19945;-67
2022/02/23 08:41:33;;;;;;;;;;;15.40;45.80;;;10.25;64.03;97100.78;4968766;28;19925;-67
2022/02/23 08:44:00;;;;;;;;;;;15.60;44.40;;;10.50;63.41;97096.38;4969500;28;20010;-67
2022/02/23 08:46:26;;;;;;;;;;;15.50;43.90;;;10.67;61.96;97099.84;4980125;28;19922;-68
2022/02/23 08:48:52;;;;;;;;;;;15.10;44.40;;;10.79;62.93;97090.59;5004338;28;19928;-68
2022/02/23 08:51:18;;;;;;;;;;;14.90;44.70;;;10.86;61.18;97096.84;4972195;28;19917;-67
2022/02/23 08:53:43;;;;;;;;;;;14.70;45.40;;;10.95;61.48;97098.50;5007109;28;20191;-67
2022/02/23 08:56:09;;;;;;;;;;;15.10;45.00;;;11.13;61.63;97097.50;4992314;28;19932;-68
2022/02/23 08:58:35;;;;;;;;;;;15.70;43.80;;;11.36;60.09;97108.97;4975746;28;20389;-68
2022/02/23 09:01:00;;;;;;;;;;;16.10;42.90;;;11.54;60.52;97106.94;5007244;28;19932;-68
2022/02/23 09:03:26;;;;;;;;;;;16.30;42.50;;;11.79;59.97;97109.50;4991543;28;19928;-68
2022/02/23 09:05:52;;;;;;;;;;;16.80;41.10;;;12.00;58.80;97108.91;4992425;28;19964;-68
2022/02/23 09:08:18;;;;;;;;;;;16.80;40.70;;;12.23;58.71;97110.59;4975025;28;19921;-68
2022/02/23 09:10:43;;;;;;;;;;;17.00;40.20;;;12.51;58.55;97099.50;4991590;28;19914;-67
2022/02/23 09:13:09;;;;;;;;;;;17.60;39.40;;;12.76;57.90;97097.50;5007519;28;19922;-68
2022/02/23 09:15:35;;;;;;;;;;;18.20;38.50;;;13.11;57.52;97098.63;4990614;28;19928;-67
2022/02/23 09:18:01;;;;;;;;;;;18.10;38.00;;;13.33;59.38;97105.72;4989273;28;20401;-68
2022/02/23 09:20:27;;;;;;;;;;;18.60;37.90;;;13.40;56.78;97106.66;5001326;28;20004;-68
2022/02/23 09:22:54;;;;;;;;;;;16.90;39.90;;;13.31;55.27;97106.91;4991174;28;19918;-67
2022/02/23 09:25:20;;;;;;;;;;;17.10;40.50;;;13.40;55.81;97106.66;4983098;28;19929;-68
2022/02/23 09:27:46;;;;;;;;;;;18.00;38.90;;;13.61;54.20;97103.28;4991369;28;19918;-66
2022/02/23 09:30:12;;;;;;;;;;;17.90;38.20;;;13.77;55.89;97108.34;4974140;28;20291;-67
2022/02/23 09:32:39;;;;;;;;;;;18.70;38.10;;;14.04;56.45;97103.41;4991315;28;19969;-66
2022/02/23 09:35:05;;;;;;;;;;;19.20;36.10;;;14.44;54.67;97104.66;4990566;28;19933;-67
2022/02/23 09:37:31;;;;;;;;;;;20.10;34.30;;;14.65;53.35;97096.72;4991391;28;19937;-67
2022/02/23 09:39:57;;;;;;;;;;;19.50;34.80;;;14.87;53.23;97099.34;4991043;28;19917;-67
2022/02/23 09:42:26;;;;;;;;;;;20.70;34.20;;;15.26;52.72;97097.00;4974535;28;19988;-67
2022/02/23 09:44:52;;;;;;;;;;;21.70;32.80;;;15.56;51.42;97088.81;4991453;28;20059;-66
2022/02/23 09:47:18;;;;;;;;;;;22.20;31.40;;;15.74;51.89;97094.47;4990822;28;20386;-67
2022/02/23 09:49:46;;;;;;;;;;;22.40;30.90;;;15.65;51.22;97087.69;4990779;28;20624;-66
2022/02/23 09:52:12;;;;;;;;;;;20.20;33.30;;;15.46;51.66;97094.50;5005968;28;19925;-66
2022/02/23 09:54:37;;;;;;;;;;;19.30;34.90;;;15.21;51.77;97099.44;4990679;28;19960;-66
2022/02/23 09:57:03;;;;;;;;;;;19.30;34.90;;;14.86;51.51;97108.31;4990398;28;19930;-68
2022/02/23 09:59:29;;;;;;;;;;;17.90;36.70;;;14.65;51.39;97106.50;4990510;28;19972;-68
2022/02/23 10:01:55;;;;;;;;;;;20.00;34.30;;;15.01;53.39;97101.09;5006838;28;20372;-66
2022/02/23 10:04:22;;;;;;;;;;;22.10;31.30;;;15.64;51.89;97101.97;4988950;28;20005;-67
2022/02/23 10:06:49;;;;;;;;;;;23.90;27.90;;;16.34;49.73;97100.81;4990445;28;19922;-66
2022/02/23 10:09:14;;;;;;;;;;;25.50;26.20;;;17.01;49.26;97099.91;4990623;28;20382;-66
2022/02/23 10:11:42;;;;;;;;;;;26.50;24.10;;;17.69;48.56;97099.63;5005713;28;19926;-66
2022/02/23 10:14:08;;;;;;;;;;;28.00;22.90;;;18.43;47.92;97103.59;4973514;28;20412;-66
2022/02/23 10:16:35;;;;;;;;;;;29.10;22.10;;;18.97;47.08;97090.53;4970517;28;19926;-66
2022/02/23 10:19:13;;;;;;;;;;;29.80;20.70;;;19.52;42.05;97087.19;4987074;28;19957;-66
2022/02/23 10:21:59;;;;;;;;;;;30.60;20.30;;;20.19;45.07;97086.22;4983251;28;19922;-66
2022/02/23 10:24:34;;;;;;;;;;;31.50;19.70;;;20.94;43.82;97085.78;5005719;28;19918;-66
2022/02/23 10:27:05;;;;;;;;;;;32.70;18.40;;;21.46;44.61;97077.09;5006405;28;20325;-66
2022/02/23 10:29:32;;;;;;;;;;;33.10;17.70;;;22.00;43.62;97079.34;4990141;28;19932;-66
2022/02/23 10:31:57;;;;;;;;;;;34.20;17.00;;;22.61;44.63;97080.53;5005963;28;19921;-67
2022/02/23 10:34:25;;;;;;;;;;;35.10;16.00;;;23.18;41.88;97080.44;5006117;28;19953;-66
2022/02/23 10:37:00;;;;;;;;;;;36.00;15.00;;;23.74;40.80;97073.19;4989594;28;19930;-66
2022/02/23 10:39:49;;;;;;;;;;;36.20;15.20;;;24.17;42.17;97079.66;4989919;28;19921;-66
2022/02/23 10:42:24;;;;;;;;;;;35.60;14.60;;;24.50;39.75;97075.19;4989727;28;19918;-66
2022/02/23 10:44:52;;;;;;;;;;;36.40;14.90;;;24.88;39.03;97075.00;4981281;28;19926;-66
2022/02/23 10:47:32;;;;;;;;;;;37.10;14.10;;;25.28;39.50;97076.44;4989941;28;19948;-66
2022/02/23 10:50:03;;;;;;;;;;;37.50;13.80;;;25.53;39.29;97079.28;5005696;28;19941;-66
2022/02/23 10:52:30;;;;;;;;;;;37.40;13.60;;;25.83;38.72;97080.59;4989579;28;19925;-66
2022/02/23 10:55:16;;;;;;;;;;;38.50;13.50;;;26.22;38.62;97087.19;5005577;28;19933;-66
2022/02/23 10:57:42;;;;;;;;;;;38.30;12.80;;;26.13;37.84;97080.72;5005275;28;19918;-66
2022/02/23 11:00:12;;;;;;;;;;;36.50;14.10;;;26.23;37.35;97078.03;4989069;28;19922;-66
2022/02/23 11:02:38;;;;;;;;;;;36.60;13.50;;;26.16;36.98;97077.47;4973050;28;19928;-67
2022/02/23 11:05:04;;;;;;;;;;;36.30;14.10;;;26.16;36.12;97077.47;4990534;28;20333;-66
2022/02/23 11:07:30;;;;;;;;;;;34.80;14.50;;;25.76;36.96;97069.22;4989102;28;19922;-66
2022/02/23 11:09:55;;;;;;;;;;;33.90;15.30;;;25.68;38.42;97067.03;4989102;28;19922;-66
2022/02/23 11:12:21;;;;;;;;;;;33.50;14.50;;;25.34;35.82;97060.03;5004895;28;20309;-67
2022/02/23 11:14:47;;;;;;;;;;;33.10;15.10;;;25.50;35.60;97057.44;4988893;28;19918;-67
2022/02/23 11:17:12;;;;;;;;;;;35.00;14.80;;;25.78;35.97;97050.88;4988887;28;19928;-66
2022/02/23 11:19:38;;;;;;;;;;;36.50;14.00;;;26.08;35.98;97048.34;4989212;28;19918;-67
2022/02/23 11:22:04;;;;;;;;;;;37.50;13.20;;;26.41;35.76;97038.19;4971720;28;20304;-67
2022/02/23 11:24:29;;;;;;;;;;;37.40;13.10;;;26.30;33.40;97039.22;4988546;28;19932;-67
2022/02/23 11:26:55;;;;;;;;;;;34.20;15.00;;;26.07;35.80;97044.03;5005320;28;19918;-67
2022/02/23 11:29:25;;;;;;;;;;;35.10;14.80;;;26.30;32.22;97044.63;4972827;28;20397;-66